Prescott, Canada
Current Conditions -  °F | °C
As of 3:53 PM on Thursday 23 Oct 2014 (Local Time) from KMSS Reporting Station
Light Rain Light Rain  
Wind Chill: 43°   Ceiling: 1000
Heat Index: 47°   Visibility: 4mi
Dew Point: 44°   Wind: 8mph
Humidity: 90%   Direction: 30°NNE
Pressure: 30.01"   Gusts: NA
Location:  44.72°N, 75.52°W
Report Text: KMSS 231953Z AUTO 03007KT 4SM -RA BR OVC010 08/07 A3001 RMK AO2 RAB33 CIG 007V013 SLP164 P0000 T00830067
Loading
Personal Weather Stations






























Interactive Weather Map
Tropical Storm Tracking
New forecast layout! Learn more

10-Day Weather Forecast

Advertisements
Track Severe Weather on mobile